Time;durP1;ratioP1;P1;durP2;ratioP2;P2;SDS_P1;SDS_P2;PMS_P1;PMS_P2;Temp;Humidity;BMP_temperature;BMP_pressure;BME280_temperature;BME280_humidity;BME280_pressure;Samples;Min_cycle;Max_cycle;Signal;HPM_P1;HPM_P2
2022/03/06 00:01:11;;;;;;;7.60;3.70;;;;;;;-0.84;61.97;99605.87;25123;1316;3054775;-68
2022/03/06 00:03:40;;;;;;;7.40;3.70;;;;;;;-0.80;62.44;99611.52;25108;1315;3028142;-68
2022/03/06 00:06:10;;;;;;;5.40;3.40;;;;;;;-0.75;62.14;99612.30;25108;1315;3027290;-67
2022/03/06 00:08:41;;;;;;;6.70;3.80;;;;;;;-0.80;61.45;99615.63;25139;1316;3052087;-65
2022/03/06 00:11:10;;;;;;;6.20;3.40;;;;;;;-0.93;61.81;99622.48;25117;1313;3027740;-65
2022/03/06 00:13:39;;;;;;;5.00;3.20;;;;;;;-0.78;61.92;99619.56;25138;1316;3028896;-64
2022/03/06 00:16:08;;;;;;;6.20;3.50;;;;;;;-0.79;61.52;99624.73;25151;1313;3053516;-67
2022/03/06 00:18:57;;;;;;;5.40;3.50;;;;;;;-0.82;61.90;99625.11;25138;1316;3051434;-65
2022/03/06 00:21:28;;;;;;;5.30;3.60;;;;;;;-0.93;62.22;99625.75;25099;1313;3026480;-67
2022/03/06 00:23:57;;;;;;;8.40;3.80;;;;;;;-0.92;62.27;99627.46;25120;1319;3026974;-66
2022/03/06 00:26:27;;;;;;;7.60;3.40;;;;;;;-0.92;62.68;99629.86;25163;1317;3050444;-66
2022/03/06 00:28:57;;;;;;;6.80;3.20;;;;;;;-0.85;62.64;99630.11;25144;1318;3026165;-68
2022/03/06 00:31:27;;;;;;;5.90;3.80;;;;;;;-0.80;62.47;99630.41;25122;1318;3027270;-64
2022/03/06 00:33:56;;;;;;;5.90;3.80;;;;;;;-0.78;62.35;99631.95;25088;1319;3026459;-65
2022/03/06 00:36:26;;;;;;;8.50;3.50;;;;;;;-0.74;62.23;99631.38;25101;1315;3026705;-65
2022/03/06 00:38:56;;;;;;;5.80;3.70;;;;;;;-0.78;61.76;99638.66;25117;1316;3051159;-67
2022/03/06 00:41:26;;;;;;;6.20;3.60;;;;;;;-0.78;61.92;99634.52;25107;1313;3026264;-62
2022/03/06 00:43:55;;;;;;;5.00;3.30;;;;;;;-0.67;61.64;99633.02;25113;1316;3067544;-63
2022/03/06 00:46:25;;;;;;;8.80;3.40;;;;;;;-0.66;60.68;99634.91;25116;1316;3026642;-67
2022/03/06 00:48:53;;;;;;;9.10;3.30;;;;;;;-0.55;60.76;99632.02;25097;1315;3052927;-68
2022/03/06 00:51:23;;;;;;;8.20;3.10;;;;;;;-0.50;59.93;99632.12;25069;1316;3027104;-63
2022/03/06 00:53:52;;;;;;;4.40;3.00;;;;;;;-0.54;59.26;99636.48;25105;1316;3026164;-66
2022/03/06 00:56:21;;;;;;;5.60;2.60;;;;;;;-0.66;59.01;99641.61;25105;1313;3053783;-66
2022/03/06 00:58:51;;;;;;;5.90;3.30;;;;;;;-0.64;59.66;99649.52;25065;1318;3026178;-68
2022/03/06 01:01:20;;;;;;;6.80;3.40;;;;;;;-0.80;62.48;99655.36;25108;1315;3026496;-64
2022/03/06 01:03:50;;;;;;;5.80;3.70;;;;;;;-0.93;63.43;99650.70;25125;1316;3051061;-63
2022/03/06 01:06:19;;;;;;;9.30;4.90;;;;;;;-0.90;63.26;99657.36;25093;1315;3027473;-65
2022/03/06 01:08:48;;;;;;;6.60;4.50;;;;;;;-0.97;64.20;99663.10;25089;1313;3026522;-64
2022/03/06 01:11:17;;;;;;;6.60;3.90;;;;;;;-1.06;65.44;99659.59;25121;1316;3026009;-65
2022/03/06 01:13:48;;;;;;;7.70;4.70;;;;;;;-1.14;66.38;99666.90;25075;1318;3070565;-71
2022/03/06 01:16:17;;;;;;;8.60;4.50;;;;;;;-1.12;66.91;99662.75;25124;1313;3026508;-66
2022/03/06 01:18:46;;;;;;;7.30;4.90;;;;;;;-1.10;67.19;99668.40;25074;1313;3027027;-66
2022/03/06 01:22:45;;;;;;;10.60;6.20;;;;;;;-1.04;67.43;99668.67;31527;1309;3027095;-64
2022/03/06 01:25:14;;;;;;;10.40;7.50;;;;;;;-0.76;66.82;99665.11;25145;1312;3026522;-65
2022/03/06 01:27:44;;;;;;;9.00;5.40;;;;;;;-0.52;65.54;99666.05;25134;1311;3028315;-61
2022/03/06 01:30:17;;;;;;;10.00;5.50;;;;;;;-0.67;66.09;99670.88;25139;1312;3026852;-66
2022/03/06 01:32:50;;;;;;;9.50;6.00;;;;;;;-0.76;66.63;99669.25;25096;1312;3053065;-70
2022/03/06 01:35:17;;;;;;;7.90;5.00;;;;;;;-0.77;66.96;99670.80;23753;1309;5555397;-65
2022/03/06 01:37:46;;;;;;;14.00;6.20;;;;;;;-0.75;67.01;99670.11;25170;1308;3026634;-63
2022/03/06 01:40:18;;;;;;;9.60;6.00;;;;;;;-0.83;67.28;99672.08;25126;1308;3026779;-65
2022/03/06 01:42:48;;;;;;;11.10;5.90;;;;;;;-0.89;67.59;99681.43;25163;1308;3026819;-66
2022/03/06 01:45:20;;;;;;;11.40;6.70;;;;;;;-1.00;68.50;99688.76;25183;1308;3026288;-67
2022/03/06 01:47:51;;;;;;;9.20;6.20;;;;;;;-1.18;69.17;99693.06;25128;1308;3026497;-68
2022/03/06 01:50:23;;;;;;;7.80;5.00;;;;;;;-1.28;69.69;99690.91;25192;1308;3026494;-65
2022/03/06 01:52:53;;;;;;;12.20;6.20;;;;;;;-1.40;70.24;99695.48;25191;1309;3026092;-71
2022/03/06 01:55:24;;;;;;;12.80;6.20;;;;;;;-1.52;70.96;99694.20;25162;1308;3026496;-67
2022/03/06 01:58:00;;;;;;;10.00;5.50;;;;;;;-1.41;71.12;99692.57;25191;1308;3026770;-67
2022/03/06 02:00:32;;;;;;;8.60;6.10;;;;;;;-1.35;70.65;99697.68;25146;1308;3051347;-66
2022/03/06 02:03:07;;;;;;;9.70;6.00;;;;;;;-1.45;71.12;99698.10;25182;1308;3053596;-65
2022/03/06 02:05:38;;;;;;;10.20;6.20;;;;;;;-1.46;71.30;99698.11;25216;1308;3028530;-68
2022/03/06 02:08:07;;;;;;;12.10;6.40;;;;;;;-1.40;71.10;99700.29;25200;1308;3027119;-70
2022/03/06 02:10:37;;;;;;;11.90;5.80;;;;;;;-1.42;71.25;99698.42;25203;1308;3026097;-70
2022/03/06 02:13:07;;;;;;;9.70;5.70;;;;;;;-0.79;70.11;99699.38;25174;1308;3026045;-64
2022/03/06 02:15:36;;;;;;;10.20;5.80;;;;;;;-0.09;67.70;99702.17;25133;1308;3029235;-66
2022/03/06 02:18:05;;;;;;;8.70;5.00;;;;;;;-0.11;66.91;99700.65;25139;1311;3027008;-66
2022/03/06 02:20:36;;;;;;;9.30;5.40;;;;;;;-0.13;66.91;99696.04;25225;1308;3049387;-67
2022/03/06 02:23:05;;;;;;;11.00;6.00;;;;;;;-0.17;66.94;99701.07;25120;1308;3028941;-72
2022/03/06 02:25:35;;;;;;;10.10;6.50;;;;;;;-0.41;66.97;99706.00;25227;1309;3027935;-66
2022/03/06 02:28:06;;;;;;;12.60;6.00;;;;;;;-0.70;67.67;99705.81;25117;1308;3053429;-70
2022/03/06 02:30:39;;;;;;;8.70;5.80;;;;;;;-0.84;68.29;99710.45;25121;1308;3026581;-67
2022/03/06 02:33:10;;;;;;;11.20;5.70;;;;;;;-0.93;68.57;99715.85;25175;1308;3026640;-68
2022/03/06 02:35:39;;;;;;;9.90;5.20;;;;;;;-0.92;68.58;99714.48;25237;1308;3026752;-64
2022/03/06 02:38:08;;;;;;;9.80;5.70;;;;;;;-1.04;68.55;99718.55;25150;1308;3027022;-65
2022/03/06 02:40:41;;;;;;;11.90;6.90;;;;;;;-1.07;68.98;99719.26;25122;1307;3051423;-66
2022/03/06 02:43:12;;;;;;;10.90;6.70;;;;;;;-1.03;69.17;99724.05;25145;1308;3028864;-69
2022/03/06 02:45:41;;;;;;;10.20;6.20;;;;;;;-1.04;68.92;99721.13;25184;1308;3027029;-70
2022/03/06 02:48:10;;;;;;;9.30;6.00;;;;;;;-1.03;69.00;99721.64;25180;1309;3027047;-68
2022/03/06 02:50:39;;;;;;;11.90;6.10;;;;;;;-1.05;68.84;99721.14;25130;1308;3026396;-65
2022/03/06 02:53:09;;;;;;;12.10;6.50;;;;;;;-1.09;69.10;99722.39;25142;1308;3051476;-70
2022/03/06 02:55:39;;;;;;;12.20;6.20;;;;;;;-1.05;68.96;99726.12;25157;1309;3028503;-70
2022/03/06 02:58:09;;;;;;;9.80;5.80;;;;;;;-1.08;69.04;99731.65;25192;1308;3028492;-69
2022/03/06 03:00:38;;;;;;;8.90;5.70;;;;;;;-1.15;69.18;99730.34;25159;1308;3029597;-66
2022/03/06 03:03:07;;;;;;;9.60;5.90;;;;;;;-1.16;69.23;99734.64;25124;1308;3056479;-66
2022/03/06 03:05:36;;;;;;;10.70;6.10;;;;;;;-1.15;69.45;99739.45;25189;1308;3027134;-68
2022/03/06 03:08:05;;;;;;;11.80;7.40;;;;;;;-1.17;69.73;99740.84;25103;1308;3053731;-65
2022/03/06 03:10:35;;;;;;;11.30;5.20;;;;;;;-1.15;69.30;99740.65;25160;1308;3026290;-61
2022/03/06 03:13:04;;;;;;;10.60;6.50;;;;;;;-1.15;69.45;99743.23;25140;1308;3026281;-70
2022/03/06 03:15:34;;;;;;;11.50;6.70;;;;;;;-1.12;69.08;99746.30;25383;1309;3026135;-62
2022/03/06 03:18:03;;;;;;;9.90;6.20;;;;;;;-1.25;69.81;99750.17;25522;1308;3058571;-59
2022/03/06 03:20:33;;;;;;;11.70;7.00;;;;;;;-1.23;70.08;99757.05;25443;1308;3026980;-63
2022/03/06 03:23:02;;;;;;;12.90;7.80;;;;;;;-1.31;69.95;99762.11;25211;1308;3028281;-68
2022/03/06 03:25:32;;;;;;;13.80;7.10;;;;;;;-1.32;70.26;99763.82;25136;1308;3057427;-67
2022/03/06 03:28:01;;;;;;;11.10;6.60;;;;;;;-1.33;70.30;99763.14;25158;1308;3026350;-66
2022/03/06 03:30:29;;;;;;;11.10;6.80;;;;;;;-1.35;70.43;99766.59;25113;1308;3050146;-69
2022/03/06 03:32:59;;;;;;;12.50;7.10;;;;;;;-1.29;70.40;99769.83;25147;1308;3029703;-64
2022/03/06 03:35:29;;;;;;;19.00;7.80;;;;;;;-1.36;70.51;99769.52;25108;1308;3026812;-69
2022/03/06 03:37:58;;;;;;;15.00;8.60;;;;;;;-1.41;70.73;99769.39;25151;1308;3053007;-63
2022/03/06 03:40:27;;;;;;;10.60;6.80;;;;;;;-1.47;71.13;99774.91;25128;1308;3026995;-68
2022/03/06 03:42:57;;;;;;;9.20;6.00;;;;;;;-1.03;70.30;99770.98;25173;1308;3052114;-65
2022/03/06 03:45:26;;;;;;;12.50;6.50;;;;;;;-0.34;68.29;99771.00;25108;1308;3027061;-68
2022/03/06 03:47:55;;;;;;;11.30;6.80;;;;;;;-0.34;67.71;99771.36;25204;1308;3027710;-63
2022/03/06 03:50:25;;;;;;;9.90;5.90;;;;;;;-0.51;67.80;99775.83;25175;1308;3026644;-67
2022/03/06 03:52:54;;;;;;;10.20;6.60;;;;;;;-0.66;67.98;99776.32;25228;1308;3052139;-68
2022/03/06 03:55:24;;;;;;;10.60;5.80;;;;;;;-0.78;68.51;99780.05;25211;1308;3029424;-69
2022/03/06 03:57:53;;;;;;;11.60;6.50;;;;;;;-0.90;69.22;99781.71;25118;1308;3026221;-72
2022/03/06 04:00:22;;;;;;;13.30;7.60;;;;;;;-0.99;69.07;99788.99;25176;1308;3051988;-69
2022/03/06 04:02:52;;;;;;;11.30;6.80;;;;;;;-1.19;69.79;99789.34;25171;1308;3027721;-70
2022/03/06 04:05:21;;;;;;;12.00;6.80;;;;;;;-1.26;70.23;99791.10;25185;1308;3028716;-69
2022/03/06 04:07:53;;;;;;;13.90;7.50;;;;;;;-1.28;70.24;99794.90;25209;1309;3052159;-66
2022/03/06 04:10:23;;;;;;;11.80;7.00;;;;;;;-1.40;70.76;99796.34;25160;1308;3028672;-64
2022/03/06 04:12:51;;;;;;;13.40;7.60;;;;;;;-1.56;71.27;99800.40;25093;1308;3026810;-69
2022/03/06 04:15:21;;;;;;;11.20;6.90;;;;;;;-1.51;71.25;99797.45;25175;1308;3053210;-68
2022/03/06 04:17:51;;;;;;;14.50;7.20;;;;;;;-1.64;71.69;99799.23;25228;1308;3027776;-73
2022/03/06 04:20:21;;;;;;;11.50;6.90;;;;;;;-1.73;71.91;99796.36;25163;1308;3026473;-67
2022/03/06 04:22:51;;;;;;;10.60;6.60;;;;;;;-1.76;72.45;99794.33;25115;1308;3049580;-64
2022/03/06 04:25:21;;;;;;;11.10;7.10;;;;;;;-1.82;72.21;99796.08;25125;1308;3027410;-66
2022/03/06 04:27:50;;;;;;;13.00;7.00;;;;;;;-1.88;72.38;99802.29;25185;1308;3026419;-66
2022/03/06 04:30:19;;;;;;;12.00;7.10;;;;;;;-1.81;72.53;99806.38;25145;1308;3051038;-63
2022/03/06 04:32:49;;;;;;;9.40;5.60;;;;;;;-1.16;71.04;99806.66;25195;1308;3027267;-70
2022/03/06 04:35:17;;;;;;;12.30;7.00;;;;;;;-0.55;68.61;99803.40;25092;1308;3026842;-67
2022/03/06 04:37:46;;;;;;;9.90;6.90;;;;;;;-0.43;68.05;99806.20;25160;1308;3050418;-65
2022/03/06 04:40:16;;;;;;;10.20;6.60;;;;;;;-0.63;68.03;99809.15;25141;1308;3028407;-69
2022/03/06 04:42:45;;;;;;;13.10;7.10;;;;;;;-0.69;68.22;99811.11;25149;1308;3026439;-62
2022/03/06 04:45:14;;;;;;;9.40;5.90;;;;;;;-0.86;68.71;99814.52;25093;1308;3053614;-68
2022/03/06 04:47:43;;;;;;;12.10;6.90;;;;;;;-1.14;69.31;99818.17;25150;1308;3026611;-66
2022/03/06 04:50:13;;;;;;;11.00;6.70;;;;;;;-1.17;69.72;99818.55;25142;1308;3027179;-66
2022/03/06 04:52:42;;;;;;;10.60;7.30;;;;;;;-1.20;69.56;99822.17;25155;1308;3028785;-67
2022/03/06 04:55:12;;;;;;;14.60;6.80;;;;;;;-1.33;70.15;99819.67;25160;1309;3026340;-65
2022/03/06 04:57:45;;;;;;;12.40;6.40;;;;;;;-1.35;69.98;99823.64;25194;1308;3026757;-66
2022/03/06 05:00:15;;;;;;;11.50;6.70;;;;;;;-1.32;70.01;99828.62;25204;1308;3053047;-74
2022/03/06 05:02:46;;;;;;;11.60;6.40;;;;;;;-1.25;69.31;99829.77;25210;1308;3026936;-71
2022/03/06 05:05:16;;;;;;;10.10;6.20;;;;;;;-1.31;69.26;99831.70;25077;1308;3026344;-68
2022/03/06 05:07:46;;;;;;;10.80;6.30;;;;;;;-1.32;69.15;99833.42;25134;1308;3026721;-64
2022/03/06 05:10:16;;;;;;;13.00;7.10;;;;;;;-1.20;68.92;99837.98;25105;1308;3027123;-68
2022/03/06 05:12:46;;;;;;;13.30;7.60;;;;;;;-1.23;68.98;99837.50;25157;1308;3026799;-71
2022/03/06 05:15:15;;;;;;;10.50;6.70;;;;;;;-1.20;69.06;99841.42;25159;1308;3030083;-61
2022/03/06 05:17:45;;;;;;;10.90;6.80;;;;;;;-1.27;69.41;99838.04;25108;1308;3026517;-68
2022/03/06 05:20:14;;;;;;;12.30;7.50;;;;;;;-1.29;69.90;99839.25;25207;1308;3028381;-72
2022/03/06 05:22:44;;;;;;;11.80;6.70;;;;;;;-1.20;69.56;99841.23;25192;1308;3027675;-70
2022/03/06 05:25:14;;;;;;;10.90;6.70;;;;;;;-1.14;69.70;99844.83;25116;1308;3026800;-68
2022/03/06 05:27:43;;;;;;;14.30;7.50;;;;;;;-1.06;69.16;99845.80;25155;1308;3055217;-70
2022/03/06 05:30:13;;;;;;;13.00;8.00;;;;;;;-0.97;69.04;99846.94;25186;1308;3026125;-67
2022/03/06 05:32:42;;;;;;;14.00;7.70;;;;;;;-0.87;68.53;99846.85;25112;1308;3052727;-66
2022/03/06 05:35:12;;;;;;;13.00;6.90;;;;;;;-0.82;68.28;99845.63;25163;1308;3026552;-71
2022/03/06 05:37:41;;;;;;;13.80;8.30;;;;;;;-0.85;67.97;99842.55;25152;1308;3027402;-66
2022/03/06 05:40:10;;;;;;;12.30;7.20;;;;;;;-0.71;67.85;99841.23;25098;1308;3026217;-69
2022/03/06 05:42:39;;;;;;;11.90;6.80;;;;;;;-0.70;67.44;99845.52;25117;1308;3053298;-64
2022/03/06 05:45:09;;;;;;;12.90;7.30;;;;;;;-0.75;67.25;99844.36;25142;1309;3027326;-64
2022/03/06 05:47:39;;;;;;;13.80;7.30;;;;;;;-0.62;67.32;99844.26;25167;1308;3049524;-67
2022/03/06 05:50:09;;;;;;;13.00;7.20;;;;;;;-0.51;66.57;99846.90;25141;1308;3028329;-70
2022/03/06 05:52:37;;;;;;;12.50;8.10;;;;;;;-0.42;65.90;99848.37;25097;1308;3056811;-69
2022/03/06 05:55:08;;;;;;;13.50;7.40;;;;;;;-0.52;66.09;99851.38;25122;1308;3026739;-64
2022/03/06 05:57:37;;;;;;;12.40;7.10;;;;;;;-0.32;65.53;99856.36;25192;1308;3027750;-66
2022/03/06 06:00:08;;;;;;;11.60;6.90;;;;;;;-0.24;65.20;99859.38;25128;1308;3026361;-70
2022/03/06 06:02:38;;;;;;;15.20;7.90;;;;;;;-0.25;64.87;99860.95;25116;1308;3049525;-67
2022/03/06 06:05:08;;;;;;;12.20;6.80;;;;;;;-0.12;64.83;99860.30;25208;1308;3028736;-69
2022/03/06 06:07:38;;;;;;;11.80;7.30;;;;;;;-0.14;64.60;99861.17;25144;1308;3026527;-69
2022/03/06 06:10:13;;;;;;;10.30;6.80;;;;;;;-0.13;64.94;99861.51;25109;1308;3071523;-68
2022/03/06 06:12:42;;;;;;;12.60;7.00;;;;;;;-0.05;64.21;99865.04;25145;1308;3026894;-68
2022/03/06 06:15:12;;;;;;;14.50;7.30;;;;;;;0.08;64.23;99868.01;25095;1308;3053819;-70
2022/03/06 06:17:42;;;;;;;16.70;7.70;;;;;;;0.05;63.58;99867.85;25157;1308;3026539;-65
2022/03/06 06:20:11;;;;;;;14.40;8.10;;;;;;;0.19;63.47;99871.14;25158;1308;3026890;-66
2022/03/06 06:22:41;;;;;;;12.50;7.00;;;;;;;0.48;62.70;99872.50;25142;1308;3026558;-65
2022/03/06 06:25:10;;;;;;;9.30;5.60;;;;;;;0.62;61.67;99871.30;25154;1308;3026913;-69
2022/03/06 06:27:39;;;;;;;12.80;6.60;;;;;;;0.62;60.25;99876.80;25147;1308;3051347;-64
2022/03/06 06:30:09;;;;;;;9.50;5.60;;;;;;;0.54;61.19;99876.05;25256;1308;3026543;-68
2022/03/06 06:32:45;;;;;;;10.20;5.70;;;;;;;0.82;59.95;99873.26;25113;1308;3054494;-64
2022/03/06 06:35:14;;;;;;;10.10;5.40;;;;;;;1.02;59.46;99872.80;25188;1308;3026731;-63
2022/03/06 06:37:43;;;;;;;9.40;5.90;;;;;;;1.18;58.96;99884.11;25172;1308;3050875;-67
2022/03/06 06:40:12;;;;;;;10.00;5.80;;;;;;;1.13;58.30;99881.08;25194;1308;3026695;-60
2022/03/06 06:42:42;;;;;;;9.60;5.80;;;;;;;1.29;57.90;99882.05;25179;1308;3051313;-64
2022/03/06 06:45:11;;;;;;;11.20;6.40;;;;;;;1.17;57.75;99882.77;25122;1308;3026434;-70
2022/03/06 06:47:40;;;;;;;11.20;6.00;;;;;;;1.06;58.31;99882.06;25152;1308;3068205;-64
2022/03/06 06:50:10;;;;;;;11.10;6.10;;;;;;;1.12;57.90;99884.73;25188;1308;3028894;-71
2022/03/06 06:52:41;;;;;;;10.60;6.50;;;;;;;1.33;57.44;99891.48;25201;1308;3030415;-67
2022/03/06 06:55:11;;;;;;;16.70;7.70;;;;;;;1.44;57.34;99894.92;25167;1308;3030376;-70
2022/03/06 06:57:40;;;;;;;11.20;6.20;;;;;;;1.50;57.48;99895.85;25195;1308;3027414;-70
2022/03/06 07:00:09;;;;;;;12.50;7.00;;;;;;;1.60;56.85;99893.27;25151;1308;3026898;-66
2022/03/06 07:02:42;;;;;;;11.90;6.20;;;;;;;1.65;56.47;99896.48;25172;1307;3051052;-66
2022/03/06 07:05:12;;;;;;;12.80;6.30;;;;;;;1.60;56.92;99895.35;25117;1308;3030361;-69
2022/03/06 07:07:42;;;;;;;15.20;7.40;;;;;;;1.72;57.07;99899.45;25128;1308;3027948;-69
2022/03/06 07:10:11;;;;;;;18.10;6.90;;;;;;;1.80;55.92;99898.27;25146;1308;3028511;-67
2022/03/06 07:12:45;;;;;;;9.80;6.40;;;;;;;1.94;55.04;99900.28;25147;1308;3027859;-60
2022/03/06 07:15:14;;;;;;;11.60;6.60;;;;;;;2.03;54.48;99899.59;25179;1308;3026791;-70
2022/03/06 07:17:43;;;;;;;10.60;5.80;;;;;;;2.10;53.67;99898.09;25139;1309;3026404;-66
2022/03/06 07:20:12;;;;;;;8.80;5.20;;;;;;;2.22;53.76;99899.94;25164;1308;3026877;-68
2022/03/06 07:22:42;;;;;;;9.70;5.40;;;;;;;2.39;52.36;99898.73;25445;1308;3070350;-66
2022/03/06 07:25:11;;;;;;;10.00;5.10;;;;;;;2.32;50.83;99899.91;25571;1308;3026546;-61
2022/03/06 07:27:40;;;;;;;9.10;4.80;;;;;;;2.44;50.88;99896.03;25488;1308;3053811;-67
2022/03/06 07:30:10;;;;;;;9.10;5.40;;;;;;;2.60;51.32;99899.70;25140;1308;3026808;-63
2022/03/06 07:32:43;;;;;;;8.70;4.90;;;;;;;2.62;51.00;99899.11;25132;1308;3053190;-64
2022/03/06 07:35:13;;;;;;;12.10;6.40;;;;;;;2.68;51.18;99902.45;25209;1308;3051290;-71
2022/03/06 07:37:43;;;;;;;10.40;5.30;;;;;;;2.68;51.06;99901.42;25125;1308;3027245;-65
2022/03/06 07:40:16;;;;;;;10.20;6.10;;;;;;;2.81;50.98;99897.52;25193;1308;3026191;-67
2022/03/06 07:42:46;;;;;;;8.80;5.60;;;;;;;3.04;50.30;99897.00;25216;1308;3028865;-69
2022/03/06 07:45:17;;;;;;;9.60;5.00;;;;;;;3.29;49.23;99895.55;25214;1308;3027095;-66
2022/03/06 07:47:47;;;;;;;8.00;4.70;;;;;;;3.49;48.02;99896.27;25236;1308;3026488;-64
2022/03/06 07:50:16;;;;;;;8.70;4.70;;;;;;;3.57;46.75;99896.27;25186;1308;3027014;-63
2022/03/06 07:52:46;;;;;;;9.00;4.70;;;;;;;3.65;46.46;99895.19;25208;1308;3049547;-73
2022/03/06 07:55:15;;;;;;;9.90;4.10;;;;;;;3.77;45.63;99900.78;25202;1308;3026217;-68
2022/03/06 07:57:44;;;;;;;6.00;3.30;;;;;;;3.95;43.97;99897.19;25178;1308;3028485;-67
2022/03/06 08:00:15;;;;;;;9.30;3.20;;;;;;;4.03;42.63;99898.02;25187;1308;3051053;-70
2022/03/06 08:02:45;;;;;;;6.70;3.30;;;;;;;4.12;43.46;99899.88;25232;1308;3027474;-68
2022/03/06 08:05:16;;;;;;;3.70;2.30;;;;;;;4.15;42.57;99901.01;25211;1308;3026622;-67
2022/03/06 08:07:45;;;;;;;3.90;1.90;;;;;;;3.98;40.65;99898.66;25175;1308;3026157;-63
2022/03/06 08:10:14;;;;;;;7.60;2.10;;;;;;;3.79;40.02;99898.66;25140;1309;3055706;-72
2022/03/06 08:12:44;;;;;;;4.70;2.30;;;;;;;4.03;39.06;99903.21;25164;1309;3026654;-69
2022/03/06 08:15:12;;;;;;;3.60;1.90;;;;;;;3.87;38.13;99899.50;25141;1311;3026906;-68
2022/03/06 08:17:42;;;;;;;2.60;2.00;;;;;;;3.78;38.71;99900.58;25126;1308;3058439;-64
2022/03/06 08:20:11;;;;;;;1.60;1.10;;;;;;;3.63;38.59;99898.89;25153;1308;3026457;-67
2022/03/06 08:22:40;;;;;;;2.60;1.70;;;;;;;3.57;38.38;99903.36;25203;1308;3051098;-67
2022/03/06 08:25:10;;;;;;;2.70;1.70;;;;;;;3.50;39.06;99902.85;25118;1308;3026200;-66
2022/03/06 08:27:39;;;;;;;4.30;1.90;;;;;;;3.61;39.37;99898.94;25091;1308;3026699;-66
2022/03/06 08:30:08;;;;;;;7.40;2.80;;;;;;;3.81;39.95;99898.60;25248;1308;3026130;-67
2022/03/06 08:32:39;;;;;;;5.40;2.20;;;;;;;3.70;39.68;99900.60;25147;1308;3058560;-71
2022/03/06 08:35:09;;;;;;;3.50;2.50;;;;;;;3.56;39.50;99897.86;25128;1308;3030287;-65
2022/03/06 08:37:39;;;;;;;3.20;2.20;;;;;;;3.57;40.10;99901.45;25179;1308;3026484;-72
2022/03/06 08:40:13;;;;;;;3.10;2.00;;;;;;;3.69;39.71;99901.67;25198;1308;3052575;-69
2022/03/06 08:42:43;;;;;;;5.00;2.90;;;;;;;3.74;40.28;99904.14;25158;1308;3028553;-65
2022/03/06 08:45:12;;;;;;;4.90;2.60;;;;;;;3.56;40.39;99904.27;25105;1308;3028916;-67
2022/03/06 08:47:41;;;;;;;5.00;3.00;;;;;;;3.69;40.47;99900.82;25168;1308;3051949;-68
2022/03/06 08:50:11;;;;;;;7.30;2.50;;;;;;;3.81;40.78;99902.77;25146;1308;3027460;-72
2022/03/06 08:52:40;;;;;;;5.20;2.70;;;;;;;3.74;40.14;99896.88;25128;1308;3027378;-67
2022/03/06 08:55:09;;;;;;;4.90;2.80;;;;;;;3.80;40.12;99899.16;25193;1308;3050936;-67
2022/03/06 08:57:39;;;;;;;4.00;2.50;;;;;;;3.95;40.07;99892.34;25144;1308;3026152;-67
2022/03/06 09:00:09;;;;;;;3.40;2.30;;;;;;;3.64;38.28;99892.44;25151;1309;3026362;-68
2022/03/06 09:02:42;;;;;;;5.60;2.70;;;;;;;3.67;39.20;99891.17;25160;1308;3050456;-64
2022/03/06 09:05:11;;;;;;;5.20;2.70;;;;;;;3.69;39.74;99889.55;25211;1308;3026449;-63
2022/03/06 09:07:40;;;;;;;5.50;3.40;;;;;;;3.67;40.66;99890.81;25115;1308;3052205;-70
2022/03/06 09:10:09;;;;;;;3.90;2.80;;;;;;;3.68;40.77;99889.76;25179;1308;3026156;-67
2022/03/06 09:12:40;;;;;;;4.20;2.80;;;;;;;3.55;40.30;99888.36;25216;1308;3028669;-67
2022/03/06 09:15:10;;;;;;;3.90;2.80;;;;;;;3.61;39.34;99893.73;25167;1308;3026621;-66
2022/03/06 09:17:39;;;;;;;3.60;2.40;;;;;;;3.52;39.53;99894.65;25158;1308;3052800;-65
2022/03/06 09:20:09;;;;;;;2.50;1.60;;;;;;;3.12;37.99;99896.28;25206;1308;3026508;-66
2022/03/06 09:22:38;;;;;;;4.30;2.30;;;;;;;3.14;38.01;99900.56;25188;1308;3055362;-69
2022/03/06 09:25:08;;;;;;;3.20;2.20;;;;;;;3.39;38.52;99893.40;25132;1308;3027545;-65
2022/03/06 09:27:37;;;;;;;5.70;2.50;;;;;;;3.53;38.70;99894.98;25209;1308;3026402;-67
2022/03/06 09:30:09;;;;;;;5.70;2.30;;;;;;;3.69;38.90;99895.95;25211;1308;3054510;-67
2022/03/06 09:32:59;;;;;;;3.50;2.30;;;;;;;3.88;38.17;99892.20;25141;1308;3050359;-67
2022/03/06 09:35:28;;;;;;;4.40;2.50;;;;;;;3.94;38.14;99898.61;25185;1308;3026260;-65
2022/03/06 09:37:57;;;;;;;5.30;3.30;;;;;;;4.09;37.98;99894.92;25126;1308;3055241;-69
2022/03/06 09:40:27;;;;;;;4.50;2.60;;;;;;;4.27;37.60;99896.84;25179;1308;3026199;-64
2022/03/06 09:43:17;;;;;;;4.00;2.40;;;;;;;4.23;37.52;99895.73;25148;1309;3052537;-65
2022/03/06 09:45:48;;;;;;;4.30;2.40;;;;;;;4.22;37.51;99892.48;25190;1309;3029109;-67
2022/03/06 09:48:17;;;;;;;3.40;2.40;;;;;;;4.09;37.13;99892.15;25177;1308;3029107;-69
2022/03/06 09:50:47;;;;;;;3.00;2.30;;;;;;;4.01;37.20;99890.46;25225;1308;3028539;-72
2022/03/06 09:53:16;;;;;;;4.10;2.40;;;;;;;4.12;37.29;99888.95;25202;1308;3027685;-68
2022/03/06 09:55:45;;;;;;;2.80;2.10;;;;;;;3.76;36.94;99891.97;25166;1308;3053583;-70
2022/03/06 09:58:14;;;;;;;3.60;2.20;;;;;;;3.90;36.63;99891.25;25135;1309;3028528;-65
2022/03/06 10:00:44;;;;;;;2.60;2.20;;;;;;;3.94;36.21;99893.57;25226;1308;3028955;-72
2022/03/06 10:03:20;;;;;;;3.30;2.20;;;;;;;3.65;36.06;99890.01;25195;1308;3026497;-69
2022/03/06 10:05:50;;;;;;;6.50;2.20;;;;;;;3.72;36.73;99892.60;25199;1308;3069513;-67
2022/03/06 10:08:23;;;;;;;3.30;2.30;;;;;;;3.79;36.52;99892.92;25167;1308;3026526;-65
2022/03/06 10:11:01;;;;;;;4.30;1.90;;;;;;;3.67;36.48;99895.66;25188;1308;3051803;-75
2022/03/06 10:13:35;;;;;;;2.90;2.00;;;;;;;3.47;37.41;99891.65;25196;1308;3054287;-72
2022/03/06 10:16:18;;;;;;;4.90;2.50;;;;;;;3.38;37.24;99892.91;25173;1308;3056415;-70
2022/03/06 10:18:47;;;;;;;4.40;2.30;;;;;;;3.64;37.70;99894.54;25154;1308;3053050;-69
2022/03/06 10:21:21;;;;;;;2.90;2.30;;;;;;;3.72;37.07;99891.70;25209;1308;3026460;-70
2022/03/06 10:24:00;;;;;;;3.50;2.20;;;;;;;3.76;37.13;99892.14;25190;1308;3027335;-69
2022/03/06 10:26:32;;;;;;;3.40;2.50;;;;;;;3.86;37.49;99893.61;25225;1308;3071572;-65
2022/03/06 10:29:03;;;;;;;5.10;2.50;;;;;;;3.92;35.48;99890.67;25213;1308;3027066;-61
2022/03/06 10:31:34;;;;;;;3.80;2.10;;;;;;;3.88;36.26;99888.21;25222;1308;3026423;-69
2022/03/06 10:34:06;;;;;;;3.10;2.40;;;;;;;4.00;36.85;99885.11;25247;1308;3026943;-70
2022/03/06 10:36:41;;;;;;;3.70;2.30;;;;;;;3.82;36.31;99884.88;25187;1308;3026355;-69
2022/03/06 10:39:21;;;;;;;4.60;2.50;;;;;;;4.06;36.21;99882.86;25234;1308;3052271;-69
2022/03/06 10:41:54;;;;;;;4.20;2.40;;;;;;;4.23;36.89;99885.16;25208;1308;3053000;-68
2022/03/06 10:44:46;;;;;;;4.40;3.10;;;;;;;4.14;36.49;99882.29;25154;1308;3053833;-64
2022/03/06 10:47:15;;;;;;;3.40;2.30;;;;;;;3.96;36.92;99884.86;25222;1308;3071336;-67
2022/03/06 10:50:01;;;;;;;4.90;3.00;;;;;;;3.97;37.05;99889.00;25153;1308;3026005;-71
2022/03/06 10:52:30;;;;;;;3.90;2.50;;;;;;;4.06;36.98;99884.77;25179;1308;3051579;-73
2022/03/06 10:55:00;;;;;;;5.10;2.70;;;;;;;4.04;36.34;99876.86;25166;1308;3026130;-66
2022/03/06 10:57:29;;;;;;;3.70;2.40;;;;;;;4.02;36.76;99875.35;25166;1308;3053287;-75
2022/03/06 10:59:59;;;;;;;5.10;2.60;;;;;;;4.04;36.87;99872.36;25221;1308;3026419;-66
2022/03/06 11:02:30;;;;;;;4.30;2.50;;;;;;;4.12;36.83;99871.77;25133;1309;3027284;-64
2022/03/06 11:05:00;;;;;;;4.90;2.70;;;;;;;4.38;36.15;99865.33;25100;1309;3027155;-68
2022/03/06 11:07:29;;;;;;;3.10;2.40;;;;;;;4.73;35.74;99863.42;25153;1309;3026623;-62
2022/03/06 11:09:58;;;;;;;3.20;2.50;;;;;;;4.86;35.44;99858.70;25184;1308;3026331;-70
2022/03/06 11:12:30;;;;;;;6.00;2.80;;;;;;;4.83;35.38;99859.66;25335;1308;3047705;-65
2022/03/06 11:15:00;;;;;;;4.00;2.40;;;;;;;4.93;34.64;99862.14;25630;1308;3026285;-62
2022/03/06 11:17:32;;;;;;;3.40;2.30;;;;;;;5.11;33.87;99865.05;25567;1308;3027111;-69
2022/03/06 11:20:03;;;;;;;5.80;2.40;;;;;;;5.25;34.71;99865.63;25233;1309;3026477;-70
2022/03/06 11:22:38;;;;;;;3.40;2.20;;;;;;;5.13;35.49;99870.20;25206;1308;3026689;-65
2022/03/06 11:25:11;;;;;;;5.00;2.80;;;;;;;5.16;35.21;99868.88;25166;1309;3054095;-74
2022/03/06 11:27:49;;;;;;;3.50;2.40;;;;;;;4.98;34.50;99867.89;25200;1308;3026908;-70
2022/03/06 11:30:22;;;;;;;3.80;2.60;;;;;;;4.83;34.40;99865.88;25179;1308;3069353;-74
2022/03/06 11:33:04;;;;;;;3.90;2.60;;;;;;;4.67;34.72;99866.39;25096;1311;3052804;-65